x

Settlement Point, Gbi (spgf1) Weather Station

3:00pm - Tue 2nd Sep 2014 All times are EDT. -4 hours from GMT.

  • Wind
    7mph, 9mph gusts
  • Air Temp 72°f
  • Sea Pressure 1019.7mb
  • Settlement Point, Gbi
  • Settlement Point, Gbi

More Historic Weather Station data

Upgrade to MSW Pro to gain access to the past 30 days of data for over 8000 Wavebouys and Weather Stations around the globe.

Join Pro

Comparision Forecast

View Surf forecast
   
Tue 09/02 3:00pm 7 9 mph 1019.7mb 72f
2:00pm 6
mph
1018.8mb 81f
1:00pm 5 7 mph 1019mb 83f
12:00pm 6 7 mph 1019.3mb 83f
11:00am 11 14 mph 1019.4mb 83f
10:00am 11 13 mph 1019.4mb 83f
9:00am 9 11 mph 1019mb 83f
8:00am 10 11 mph 1018.4mb 83f
7:00am 13 15 mph 1017.9mb 82f
6:00am 9 10 mph 1017.6mb 82f
5:00am 8 9 mph 1017.5mb 82f
4:00am 7 8 mph 1018.1mb 81f
3:00am 7 8 mph 1018.7mb 81f
2:00am 7 8 mph 1019.1mb 82f
1:00am 8 9 mph 1019.6mb 82f
12:00am 9 10 mph 1019.8mb 82f
Mon 09/01 11:00pm 7 8 mph 1019.9mb 81f
10:00pm 10 11 mph 1019.7mb 82f
9:00pm 14 16 mph 1019.1mb 83f
8:00pm 5 6 mph 1018.5mb 82f
7:00pm 8 10 mph 1018.4mb 83f
6:00pm 5
mph
1018.4mb 82f
5:00pm 6 7 mph 1018.6mb 81f
4:00pm 11 15 mph 1018.8mb 79f
3:00pm 3
mph
1019mb 85f
2:00pm 11 14 mph 1019.9mb 83f
1:00pm 6 7 mph 1020.1mb 84f
12:00pm 9 13 mph 1020.4mb 85f
11:00am 11 14 mph 1020.6mb 84f
10:00am 8 10 mph 1020.3mb 84f
9:00am 11 13 mph 1019.8mb 84f
8:00am 13
mph
1019.2mb 83f
7:00am 11 13 mph 1019mb 83f
6:00am 10 11 mph 1018.5mb 83f
5:00am 9 10 mph 1018.5mb 83f
4:00am 7 8 mph 1018.7mb 83f
3:00am 5 7 mph 1019.4mb 83f
2:00am 5 6 mph 1020.1mb 83f
1:00am 7 9 mph 1020.2mb 83f
12:00am 5 6 mph 1020.4mb 82f
Sun 08/31 11:00pm 7 8 mph 1020.5mb 82f
10:00pm 7 8 mph 1020mb 83f
9:00pm 7 8 mph 1019.6mb 84f
8:00pm 10 11 mph 1019.2mb 85f
7:00pm 11 13 mph 1019.2mb 84f
6:00pm 15 16 mph 1018.8mb 85f
5:00pm 13 15 mph 1019mb 86f
4:00pm 9 13 mph 1019.2mb 86f
3:00pm 9 10 mph 1019.6mb 84f
2:00pm 11 14 mph 1020.4mb 85f
1:00pm 11 13 mph 1020.8mb 85f
12:00pm 11 13 mph 1021mb 85f
11:00am 14 15 mph 1021.3mb 84f
10:00am 15 16 mph 1021.1mb 83f
9:00am 11 14 mph 1020.9mb 83f
8:00am 10 11 mph 1020.8mb 83f
7:00am 10 11 mph 1020.4mb 83f
6:00am 9 10 mph 1020.2mb 83f
5:00am 8 10 mph 1020mb 83f
4:00am 11 13 mph 1019.8mb 83f
3:00am 6 7 mph 1020.3mb 83f
2:00am 6 7 mph 1020.6mb 83f
1:00am 6 7 mph 1020.5mb 83f
12:00am 6 8 mph 1020.5mb 83f
Sat 08/30 11:00pm 10 14 mph 1020.5mb 84f
10:00pm 13 14 mph 1020.3mb 84f
9:00pm 14 16 mph 1019.8mb 84f
8:00pm 8 9 mph 1019.4mb 85f
7:00pm 14 15 mph 1018.8mb 85f
6:00pm 11 14 mph 1019mb 82f
5:00pm 14 15 mph 1019mb 85f
4:00pm 13
mph
1019.3mb 85f
3:00pm 11 13 mph 1019.7mb 85f
2:00pm 10 11 mph 1020.4mb 85f
1:00pm 10 11 mph 1020.9mb 85f
12:00pm 10 11 mph 1021mb 84f
11:00am 13 15 mph 1021mb 84f
10:00am 14 16 mph 1020.5mb 83f
9:00am 13 15 mph 1020.3mb 83f
8:00am 15 16 mph 1020.8mb 83f
7:00am 22 23 mph 1020.4mb 81f
6:00am 16 18 mph 1020.6mb 80f
5:00am 22 24 mph 1020.1mb 79f
4:00am 3
mph
1019.6mb 82f
3:00am 6 7 mph 1019.9mb 83f
2:00am 3 5 mph 1020.1mb 83f
1:00am 5 6 mph 1020.4mb 83f
12:00am 7
mph
1020.3mb 83f
Fri 08/29 11:00pm 6
mph
1020.2mb 84f
10:00pm 7 8 mph 1019.8mb 83f
9:00pm 7 8 mph 1019.2mb 84f